ZWWW Airport Information

Runway Information
Runway 07 Length 11811 ft width 148 ft
Elevation 2123 ft Threshold 0 ft Heading 74
Runway 25 Length 11811 ft Width 148 ft
Elevation 2126 ft Threshold 0 ft Heading 254
Airport Frequencies
Type ATIS Name ATIS Frequency 126.7 MHZ
Type GND Name GND Frequency 121.65 MHZ
Type TWR Name TWR Frequency 118.1 MHZ
Airport Navaids
Type NDB Name Fukang Frequency 369 KHZ
Type VOR-DME Name Fukang Frequency 116300 KHZ
Type VOR-DME Name Urumqi Frequency 115700 KHZ
Airport Weather Information & NOTAM
ADDS - METARS form results

(1559 UTC 04 April 2020)
Data provider http://aviationweather.gov/metar/data/
 
METAR text: ZWWW 041530Z 19002MPS 150V220 CAVOK 16/M15 Q1022 NOSIG
Conditions at: ZWWW (URUM-QI/DIWOPU , CN) observed 1530 UTC 04 April 2020
Temperature: 16.0°C (61°F)
Dewpoint: -15.0°C ( 5°F) [RH = 11%]
Pressure (altimeter): 30.18 inches Hg (1022.0 mb)
Winds: from the S (190 degrees) at 5 MPH (4 knots; 2.1 m/s)
Visibility: 6 or more miles (10+ km)
Ceiling: ceiling and visibility are OK
Clouds: unknown
Weather: no significant weather observed at this time

METAR text: ZWWW 041500Z 19002MPS CAVOK 16/M14 Q1022 NOSIG
Conditions at: ZWWW (URUM-QI/DIWOPU , CN) observed 1500 UTC 04 April 2020
Temperature: 16.0°C (61°F)
Dewpoint: -14.0°C ( 7°F) [RH = 11%]
Pressure (altimeter): 30.18 inches Hg (1022.0 mb)
Winds: from the S (190 degrees) at 5 MPH (4 knots; 2.1 m/s)
Visibility: 6 or more miles (10+ km)
Ceiling: ceiling and visibility are OK
Clouds: unknown
Weather: no significant weather observed at this time

Forecast for: ZWWW (URUM-QI/DIWOPU , CN)
Text: TAF ZWWW 040902Z 0412/0512 03004MPS CAVOK TX23/0509Z TN13/0423Z
Forecast period: 1200 to 1300 UTC 04 April 2020
Forecast type: FROM: standard forecast or significant change
Winds: from the NNE (30 degrees) at 9 MPH (8 knots; 4.1 m/s)
Visibility: 6 or more miles 10+ km)
Ceiling: unknown
Clouds: missing
Weather: no significant weather forecast for this period
Text: BECMG 0413/0414 18004MPS
Forecast period: 1300 UTC 04 April 2020 to 0300 UTC 05 April 2020
Forecast type: BECOMING: Conditions expected to become as follows by 1400 UTC 04 April 2020
Winds: from the S (180 degrees) at 9 MPH (8 knots; 4.1 m/s)
Visibility: 6 or more miles 10+ km)
Ceiling: unknown
Clouds: missing
Weather: no significant weather forecast for this period
Text: BECMG 0503/0504 36004MPS
Forecast period: 0300 to 1200 UTC 05 April 2020
Forecast type: BECOMING: Conditions expected to become as follows by 0400 UTC 05 April 2020
Winds: from the N (360 degrees) at 9 MPH (8 knots; 4.1 m/s)
Visibility: 6 or more miles 10+ km)
Ceiling: unknown
Clouds: missing
Weather: no significant weather forecast for this period